sensor_id;sensor_type;location;lat;lon;timestamp;pressure;altitude;pressure_sealevel;temperature;humidity
77869;BME280;67231;59.144;37.934;2023-11-19T00:01:34;101029.66;;;-7.11;77.35
77869;BME280;67231;59.144;37.934;2023-11-19T00:04:01;101035.66;;;-7.07;77.48
77869;BME280;67231;59.144;37.934;2023-11-19T00:06:27;101039.00;;;-7.01;77.48
77869;BME280;67231;59.144;37.934;2023-11-19T00:08:54;101033.78;;;-6.93;76.89
77869;BME280;67231;59.144;37.934;2023-11-19T00:11:20;101039.78;;;-6.94;77.33
77869;BME280;67231;59.144;37.934;2023-11-19T00:13:47;101024.34;;;-6.96;77.33
77869;BME280;67231;59.144;37.934;2023-11-19T00:16:14;101024.41;;;-7.02;77.15
77869;BME280;67231;59.144;37.934;2023-11-19T00:18:40;101023.56;;;-7.04;77.34
77869;BME280;67231;59.144;37.934;2023-11-19T00:21:07;101027.84;;;-7.01;77.65
77869;BME280;67231;59.144;37.934;2023-11-19T00:23:34;101016.63;;;-7.00;76.96
77869;BME280;67231;59.144;37.934;2023-11-19T00:26:01;101024.38;;;-6.99;77.00
77869;BME280;67231;59.144;37.934;2023-11-19T00:28:27;101027.84;;;-7.00;77.50
77869;BME280;67231;59.144;37.934;2023-11-19T00:30:55;101020.94;;;-7.01;77.09
77869;BME280;67231;59.144;37.934;2023-11-19T00:33:22;101025.19;;;-6.97;77.56
77869;BME280;67231;59.144;37.934;2023-11-19T00:35:48;101017.44;;;-6.97;76.92
77869;BME280;67231;59.144;37.934;2023-11-19T00:38:15;101014.88;;;-6.97;77.51
77869;BME280;67231;59.144;37.934;2023-11-19T00:40:41;101015.75;;;-6.94;77.58
77869;BME280;67231;59.144;37.934;2023-11-19T00:43:08;101011.44;;;-6.96;77.28
77869;BME280;67231;59.144;37.934;2023-11-19T00:45:35;101015.75;;;-6.94;77.33
77869;BME280;67231;59.144;37.934;2023-11-19T00:48:01;101015.75;;;-6.94;77.43
77869;BME280;67231;59.144;37.934;2023-11-19T00:50:28;101020.91;;;-6.94;77.09
77869;BME280;67231;59.144;37.934;2023-11-19T00:52:55;101014.88;;;-6.97;77.50
77869;BME280;67231;59.144;37.934;2023-11-19T00:55:21;101017.44;;;-6.97;77.55
77869;BME280;67231;59.144;37.934;2023-11-19T00:57:48;101015.75;;;-6.94;77.11
77869;BME280;67231;59.144;37.934;2023-11-19T01:00:14;101007.97;;;-6.93;77.07
77869;BME280;67231;59.144;37.934;2023-11-19T01:02:45;101005.38;;;-6.91;77.24
77869;BME280;67231;59.144;37.934;2023-11-19T01:05:12;101005.41;;;-6.94;77.61
77869;BME280;67231;59.144;37.934;2023-11-19T01:07:42;101000.28;;;-6.98;77.15
77869;BME280;67231;59.144;37.934;2023-11-19T01:10:09;101001.97;;;-6.97;77.31
77869;BME280;67231;59.144;37.934;2023-11-19T01:12:36;101008.91;;;-7.00;77.26
77869;BME280;67231;59.144;37.934;2023-11-19T01:15:06;101008.91;;;-7.02;77.57
77869;BME280;67231;59.144;37.934;2023-11-19T01:17:32;101004.66;;;-7.03;77.48
77869;BME280;67231;59.144;37.934;2023-11-19T01:19:58;101005.50;;;-7.04;77.41
77869;BME280;67231;59.144;37.934;2023-11-19T01:22:25;100996.88;;;-7.00;77.74
77869;BME280;67231;59.144;37.934;2023-11-19T01:24:52;100991.63;;;-6.95;76.87
77869;BME280;67231;59.144;37.934;2023-11-19T01:27:20;100991.63;;;-6.93;77.29
77869;BME280;67231;59.144;37.934;2023-11-19T01:29:46;100986.50;;;-6.97;77.48
77869;BME280;67231;59.144;37.934;2023-11-19T01:32:13;100988.25;;;-6.99;77.27
77869;BME280;67231;59.144;37.934;2023-11-19T01:34:39;100991.75;;;-7.03;77.29
77869;BME280;67231;59.144;37.934;2023-11-19T01:37:06;100980.53;;;-7.00;77.10
77869;BME280;67231;59.144;37.934;2023-11-19T01:39:35;100974.50;;;-6.98;77.33
77869;BME280;67231;59.144;37.934;2023-11-19T01:42:01;100971.91;;;-6.98;77.20
77869;BME280;67231;59.144;37.934;2023-11-19T01:44:27;100969.38;;;-7.01;77.58
77869;BME280;67231;59.144;37.934;2023-11-19T01:46:54;100970.22;;;-7.02;77.96
77869;BME280;67231;59.144;37.934;2023-11-19T01:49:20;100965.06;;;-7.00;77.35
77869;BME280;67231;59.144;37.934;2023-11-19T01:51:47;100963.38;;;-7.01;77.43
77869;BME280;67231;59.144;37.934;2023-11-19T01:54:15;100959.94;;;-7.03;77.26
77869;BME280;67231;59.144;37.934;2023-11-19T01:56:41;100959.94;;;-7.03;77.12
77869;BME280;67231;59.144;37.934;2023-11-19T01:59:09;100965.94;;;-7.01;77.56
77869;BME280;67231;59.144;37.934;2023-11-19T02:01:39;100964.22;;;-7.01;77.17
77869;BME280;67231;59.144;37.934;2023-11-19T02:04:09;100970.16;;;-6.96;77.09
77869;BME280;67231;59.144;37.934;2023-11-19T02:06:40;100965.81;;;-6.93;76.94
77869;BME280;67231;59.144;37.934;2023-11-19T02:09:09;100964.91;;;-6.86;77.42
77869;BME280;67231;59.144;37.934;2023-11-19T02:11:36;100978.63;;;-6.84;77.03
77869;BME280;67231;59.144;37.934;2023-11-19T02:14:03;100971.72;;;-6.84;77.87
77869;BME280;67231;59.144;37.934;2023-11-19T02:16:31;100968.31;;;-6.84;77.37
77869;BME280;67231;59.144;37.934;2023-11-19T02:18:57;100971.72;;;-6.84;77.35
77869;BME280;67231;59.144;37.934;2023-11-19T02:21:24;100959.72;;;-6.83;77.66
77869;BME280;67231;59.144;37.934;2023-11-19T02:23:50;100962.28;;;-6.83;77.12
77869;BME280;67231;59.144;37.934;2023-11-19T02:26:39;100953.72;;;-6.85;77.60
77869;BME280;67231;59.144;37.934;2023-11-19T02:29:05;100959.78;;;-6.89;77.87
77869;BME280;67231;59.144;37.934;2023-11-19T02:31:32;100955.50;;;-6.92;77.62
77869;BME280;67231;59.144;37.934;2023-11-19T02:33:59;100951.22;;;-6.91;77.27
77869;BME280;67231;59.144;37.934;2023-11-19T02:36:27;100946.97;;;-6.97;77.49
77869;BME280;67231;59.144;37.934;2023-11-19T02:38:53;100946.94;;;-6.96;77.17
77869;BME280;67231;59.144;37.934;2023-11-19T02:41:19;100943.47;;;-6.91;77.54
77869;BME280;67231;59.144;37.934;2023-11-19T02:43:45;100946.00;;;-6.88;77.36
77869;BME280;67231;59.144;37.934;2023-11-19T02:46:14;100934.75;;;-6.84;77.50
77869;BME280;67231;59.144;37.934;2023-11-19T02:48:43;100939.94;;;-6.86;77.69
77869;BME280;67231;59.144;37.934;2023-11-19T02:51:12;100940.75;;;-6.84;77.29
77869;BME280;67231;59.144;37.934;2023-11-19T02:53:38;100936.47;;;-6.83;76.88
77869;BME280;67231;59.144;37.934;2023-11-19T02:56:06;100939.94;;;-6.84;77.86
77869;BME280;67231;59.144;37.934;2023-11-19T02:58:45;100939.00;;;-6.79;77.66
77869;BME280;67231;59.144;37.934;2023-11-19T03:01:12;100948.34;;;-6.70;77.33
77869;BME280;67231;59.144;37.934;2023-11-19T03:03:50;100932.84;;;-6.70;77.08
77869;BME280;67231;59.144;37.934;2023-11-19T03:06:24;100929.41;;;-6.67;77.75
77869;BME280;67231;59.144;37.934;2023-11-19T03:08:51;100932.03;;;-6.70;77.34
77869;BME280;67231;59.144;37.934;2023-11-19T03:11:17;100935.47;;;-6.73;76.85
77869;BME280;67231;59.144;37.934;2023-11-19T03:13:44;100923.44;;;-6.72;77.52
77869;BME280;67231;59.144;37.934;2023-11-19T03:16:10;100921.66;;;-6.67;77.91
77869;BME280;67231;59.144;37.934;2023-11-19T03:18:37;100915.56;;;-6.63;77.23
77869;BME280;67231;59.144;37.934;2023-11-19T03:21:08;100910.34;;;-6.59;77.11
77869;BME280;67231;59.144;37.934;2023-11-19T03:23:35;100908.69;;;-6.63;77.17
77869;BME280;67231;59.144;37.934;2023-11-19T03:26:03;100907.00;;;-6.67;77.51
77869;BME280;67231;59.144;37.934;2023-11-19T03:28:31;100908.72;;;-6.66;77.28
77869;BME280;67231;59.144;37.934;2023-11-19T03:30:58;100909.59;;;-6.67;76.83
77869;BME280;67231;59.144;37.934;2023-11-19T03:33:25;100906.19;;;-6.69;77.13
77869;BME280;67231;59.144;37.934;2023-11-19T03:35:55;100904.44;;;-6.68;77.34
77869;BME280;67231;59.144;37.934;2023-11-19T03:38:23;100910.56;;;-6.74;76.89
77869;BME280;67231;59.144;37.934;2023-11-19T03:40:51;100901.97;;;-6.76;77.35
77869;BME280;67231;59.144;37.934;2023-11-19T03:43:18;100904.56;;;-6.76;77.25
77869;BME280;67231;59.144;37.934;2023-11-19T03:45:48;100897.72;;;-6.77;76.75
77869;BME280;67231;59.144;37.934;2023-11-19T03:48:14;100901.09;;;-6.73;76.35
77869;BME280;67231;59.144;37.934;2023-11-19T03:50:44;100899.38;;;-6.74;76.70
77869;BME280;67231;59.144;37.934;2023-11-19T03:53:12;100901.91;;;-6.71;76.76
77869;BME280;67231;59.144;37.934;2023-11-19T03:55:39;100900.13;;;-6.68;76.18
77869;BME280;67231;59.144;37.934;2023-11-19T03:58:05;100895.81;;;-6.66;76.28
77869;BME280;67231;59.144;37.934;2023-11-19T04:00:32;100885.53;;;-6.67;76.81
77869;BME280;67231;59.144;37.934;2023-11-19T04:02:59;100887.22;;;-6.66;76.47
77869;BME280;67231;59.144;37.934;2023-11-19T04:05:25;100891.53;;;-6.67;76.65
77869;BME280;67231;59.144;37.934;2023-11-19T04:07:52;100891.50;;;-6.65;76.46
77869;BME280;67231;59.144;37.934;2023-11-19T04:10:18;100876.84;;;-6.63;76.67
77869;BME280;67231;59.144;37.934;2023-11-19T04:12:45;100876.88;;;-6.65;76.73
77869;BME280;67231;59.144;37.934;2023-11-19T04:15:12;100882.84;;;-6.60;76.00
77869;BME280;67231;59.144;37.934;2023-11-19T04:17:38;100882.00;;;-6.62;76.37
77869;BME280;67231;59.144;37.934;2023-11-19T04:20:05;100886.31;;;-6.62;76.15
77869;BME280;67231;59.144;37.934;2023-11-19T04:22:32;100887.13;;;-6.60;76.24
77869;BME280;67231;59.144;37.934;2023-11-19T04:24:58;100872.50;;;-6.60;76.43
77869;BME280;67231;59.144;37.934;2023-11-19T04:27:24;100868.19;;;-6.57;76.55
77869;BME280;67231;59.144;37.934;2023-11-19T04:29:51;100876.78;;;-6.59;75.92
77869;BME280;67231;59.144;37.934;2023-11-19T04:32:18;100881.16;;;-6.62;76.52
77869;BME280;67231;59.144;37.934;2023-11-19T04:34:45;100877.72;;;-6.63;75.90
77869;BME280;67231;59.144;37.934;2023-11-19T04:37:11;100869.97;;;-6.63;76.17
77869;BME280;67231;59.144;37.934;2023-11-19T04:39:38;100863.06;;;-6.61;76.19
77869;BME280;67231;59.144;37.934;2023-11-19T04:42:04;100863.06;;;-6.62;76.58
77869;BME280;67231;59.144;37.934;2023-11-19T04:44:32;100866.47;;;-6.60;75.45
77869;BME280;67231;59.144;37.934;2023-11-19T04:46:58;100858.72;;;-6.59;75.80
77869;BME280;67231;59.144;37.934;2023-11-19T04:49:25;100856.19;;;-6.63;76.27
77869;BME280;67231;59.144;37.934;2023-11-19T04:51:53;100851.06;;;-6.65;75.43
77869;BME280;67231;59.144;37.934;2023-11-19T04:54:20;100855.34;;;-6.64;75.68
77869;BME280;67231;59.144;37.934;2023-11-19T04:56:46;100863.06;;;-6.61;76.01
77869;BME280;67231;59.144;37.934;2023-11-19T04:59:13;100860.50;;;-6.64;75.96
77869;BME280;67231;59.144;37.934;2023-11-19T05:01:40;100850.22;;;-6.65;75.52
77869;BME280;67231;59.144;37.934;2023-11-19T05:04:07;100862.28;;;-6.66;75.76
77869;BME280;67231;59.144;37.934;2023-11-19T05:06:34;100851.06;;;-6.66;76.23
77869;BME280;67231;59.144;37.934;2023-11-19T05:09:01;100851.97;;;-6.67;75.60
77869;BME280;67231;59.144;37.934;2023-11-19T05:11:30;100852.78;;;-6.64;75.59
77869;BME280;67231;59.144;37.934;2023-11-19T05:13:56;100859.63;;;-6.61;75.99
77869;BME280;67231;59.144;37.934;2023-11-19T05:16:23;100852.75;;;-6.62;75.71
77869;BME280;67231;59.144;37.934;2023-11-19T05:18:50;100851.88;;;-6.60;75.67
77869;BME280;67231;59.144;37.934;2023-11-19T05:21:16;100856.19;;;-6.62;76.11
77869;BME280;67231;59.144;37.934;2023-11-19T05:23:43;100858.72;;;-6.59;75.95
77869;BME280;67231;59.144;37.934;2023-11-19T05:26:17;100866.41;;;-6.55;75.48
77869;BME280;67231;59.144;37.934;2023-11-19T05:28:44;100867.25;;;-6.55;75.87
77869;BME280;67231;59.144;37.934;2023-11-19T05:31:11;100860.38;;;-6.54;76.05
77869;BME280;67231;59.144;37.934;2023-11-19T05:33:37;100869.00;;;-6.55;75.76
77869;BME280;67231;59.144;37.934;2023-11-19T05:36:05;100873.34;;;-6.57;75.62
77869;BME280;67231;59.144;37.934;2023-11-19T05:38:32;100875.88;;;-6.54;75.78
77869;BME280;67231;59.144;37.934;2023-11-19T05:40:59;100873.25;;;-6.51;75.59
77869;BME280;67231;59.144;37.934;2023-11-19T05:43:25;100871.56;;;-6.54;75.91
77869;BME280;67231;59.144;37.934;2023-11-19T05:45:52;100882.72;;;-6.53;75.66
77869;BME280;67231;59.144;37.934;2023-11-19T05:48:18;100874.94;;;-6.50;75.65
77869;BME280;67231;59.144;37.934;2023-11-19T05:50:45;100887.78;;;-6.46;75.76
77869;BME280;67231;59.144;37.934;2023-11-19T05:53:12;100868.81;;;-6.43;75.56
77869;BME280;67231;59.144;37.934;2023-11-19T05:55:40;100877.41;;;-6.43;75.91
77869;BME280;67231;59.144;37.934;2023-11-19T05:58:14;100889.47;;;-6.43;75.28
77869;BME280;67231;59.144;37.934;2023-11-19T06:00:41;100879.94;;;-6.39;75.56
77869;BME280;67231;59.144;37.934;2023-11-19T06:03:08;100876.53;;;-6.40;75.39
77869;BME280;67231;59.144;37.934;2023-11-19T06:05:35;100879.06;;;-6.37;75.31
77869;BME280;67231;59.144;37.934;2023-11-19T06:08:01;100882.47;;;-6.35;75.75
77869;BME280;67231;59.144;37.934;2023-11-19T06:10:28;100873.78;;;-6.31;75.43
77869;BME280;67231;59.144;37.934;2023-11-19T06:13:00;100880.59;;;-6.25;75.37
77869;BME280;67231;59.144;37.934;2023-11-19T06:15:26;100884.88;;;-6.23;75.80
77869;BME280;67231;59.144;37.934;2023-11-19T06:17:55;100878.81;;;-6.22;75.48
77869;BME280;67231;59.144;37.934;2023-11-19T06:20:24;100878.78;;;-6.20;75.36
77869;BME280;67231;59.144;37.934;2023-11-19T06:22:51;100886.50;;;-6.18;75.47
77869;BME280;67231;59.144;37.934;2023-11-19T06:25:17;100893.38;;;-6.17;75.12
77869;BME280;67231;59.144;37.934;2023-11-19T06:27:44;100890.72;;;-6.11;75.39
77869;BME280;67231;59.144;37.934;2023-11-19T06:30:11;100899.28;;;-6.09;74.88
77869;BME280;67231;59.144;37.934;2023-11-19T06:32:38;100891.47;;;-6.06;74.82
77869;BME280;67231;59.144;37.934;2023-11-19T06:35:04;100905.25;;;-6.06;74.72
77869;BME280;67231;59.144;37.934;2023-11-19T06:37:31;100890.59;;;-6.05;74.84
77869;BME280;67231;59.144;37.934;2023-11-19T06:39:57;100900.06;;;-6.06;74.65
77869;BME280;67231;59.144;37.934;2023-11-19T06:42:24;100890.63;;;-6.07;74.53
77869;BME280;67231;59.144;37.934;2023-11-19T06:44:50;100890.47;;;-5.99;74.92
77869;BME280;67231;59.144;37.934;2023-11-19T06:47:17;100899.97;;;-5.98;75.08
77869;BME280;67231;59.144;37.934;2023-11-19T06:49:44;100902.53;;;-5.98;74.82
77869;BME280;67231;59.144;37.934;2023-11-19T06:52:11;100902.53;;;-5.98;74.49
77869;BME280;67231;59.144;37.934;2023-11-19T06:54:40;100899.94;;;-5.96;74.65
77869;BME280;67231;59.144;37.934;2023-11-19T06:57:07;100900.59;;;-5.87;74.56
77869;BME280;67231;59.144;37.934;2023-11-19T06:59:35;100898.78;;;-5.81;74.82
77869;BME280;67231;59.144;37.934;2023-11-19T07:02:02;100901.34;;;-5.81;74.55
77869;BME280;67231;59.144;37.934;2023-11-19T07:04:28;100905.63;;;-5.79;74.08
77869;BME280;67231;59.144;37.934;2023-11-19T07:06:54;100905.72;;;-5.83;74.79
77869;BME280;67231;59.144;37.934;2023-11-19T07:09:21;100907.53;;;-5.89;74.33
77869;BME280;67231;59.144;37.934;2023-11-19T07:11:49;100907.56;;;-5.92;74.25
77869;BME280;67231;59.144;37.934;2023-11-19T07:14:18;100905.00;;;-5.92;74.23
77869;BME280;67231;59.144;37.934;2023-11-19T07:16:45;100919.59;;;-5.91;74.36
77869;BME280;67231;59.144;37.934;2023-11-19T07:19:16;100914.34;;;-5.85;74.39
77869;BME280;67231;59.144;37.934;2023-11-19T07:21:43;100922.97;;;-5.84;74.45
77869;BME280;67231;59.144;37.934;2023-11-19T07:24:12;100917.72;;;-5.79;73.99
77869;BME280;67231;59.144;37.934;2023-11-19T07:26:43;100914.19;;;-5.75;73.72
77869;BME280;67231;59.144;37.934;2023-11-19T07:29:11;100906.38;;;-5.72;73.82
77869;BME280;67231;59.144;37.934;2023-11-19T07:31:37;100920.88;;;-5.65;73.85
77869;BME280;67231;59.144;37.934;2023-11-19T07:34:04;100914.78;;;-5.59;73.84
77869;BME280;67231;59.144;37.934;2023-11-19T07:36:32;100917.38;;;-5.61;73.17
77869;BME280;67231;59.144;37.934;2023-11-19T07:38:59;100919.88;;;-5.56;73.93
77869;BME280;67231;59.144;37.934;2023-11-19T07:41:26;100910.34;;;-5.54;73.70
77869;BME280;67231;59.144;37.934;2023-11-19T07:43:52;100917.22;;;-5.52;73.45
77869;BME280;67231;59.144;37.934;2023-11-19T07:46:19;100916.31;;;-5.51;73.45
77869;BME280;67231;59.144;37.934;2023-11-19T07:48:46;100922.38;;;-5.50;73.58
77869;BME280;67231;59.144;37.934;2023-11-19T07:51:15;100918.84;;;-5.47;73.96
77869;BME280;67231;59.144;37.934;2023-11-19T07:53:42;100930.13;;;-5.50;74.07
77869;BME280;67231;59.144;37.934;2023-11-19T07:56:09;100923.22;;;-5.50;73.72
77869;BME280;67231;59.144;37.934;2023-11-19T07:58:36;100932.69;;;-5.49;73.58
77869;BME280;67231;59.144;37.934;2023-11-19T08:01:03;100925.84;;;-5.53;73.41
77869;BME280;67231;59.144;37.934;2023-11-19T08:03:29;100930.16;;;-5.52;73.33
77869;BME280;67231;59.144;37.934;2023-11-19T08:05:56;100924.03;;;-5.47;73.04
77869;BME280;67231;59.144;37.934;2023-11-19T08:08:23;100929.97;;;-5.41;73.01
77869;BME280;67231;59.144;37.934;2023-11-19T08:10:50;100927.88;;;-5.23;73.02
77869;BME280;67231;59.144;37.934;2023-11-19T08:13:18;100921.63;;;-5.12;73.09
77869;BME280;67231;59.144;37.934;2023-11-19T08:15:44;100915.41;;;-5.03;72.79
77869;BME280;67231;59.144;37.934;2023-11-19T08:18:12;100920.28;;;-4.87;72.36
77869;BME280;67231;59.144;37.934;2023-11-19T08:20:38;100919.34;;;-4.85;72.39
77869;BME280;67231;59.144;37.934;2023-11-19T08:23:05;100913.34;;;-4.85;72.27
77869;BME280;67231;59.144;37.934;2023-11-19T08:25:31;100906.41;;;-4.85;72.42
77869;BME280;67231;59.144;37.934;2023-11-19T08:27:59;100906.25;;;-4.77;72.23
77869;BME280;67231;59.144;37.934;2023-11-19T08:30:26;100901.72;;;-4.67;72.34
77869;BME280;67231;59.144;37.934;2023-11-19T08:32:54;100902.53;;;-4.64;71.77
77869;BME280;67231;59.144;37.934;2023-11-19T08:35:21;100896.50;;;-4.66;72.09
77869;BME280;67231;59.144;37.934;2023-11-19T08:37:47;100892.31;;;-4.70;72.00
77869;BME280;67231;59.144;37.934;2023-11-19T08:40:14;100898.47;;;-4.76;72.02
77869;BME280;67231;59.144;37.934;2023-11-19T08:42:40;100894.22;;;-4.78;72.00
77869;BME280;67231;59.144;37.934;2023-11-19T08:45:07;100889.88;;;-4.78;72.23
77869;BME280;67231;59.144;37.934;2023-11-19T08:47:39;100891.38;;;-4.67;72.11
77869;BME280;67231;59.144;37.934;2023-11-19T08:50:06;100893.91;;;-4.64;71.65
77869;BME280;67231;59.144;37.934;2023-11-19T08:52:34;100880.06;;;-4.63;71.40
77869;BME280;67231;59.144;37.934;2023-11-19T08:55:01;100891.41;;;-4.69;71.60
77869;BME280;67231;59.144;37.934;2023-11-19T08:57:27;100894.28;;;-4.81;71.38
77869;BME280;67231;59.144;37.934;2023-11-19T08:59:54;100884.06;;;-4.87;71.75
77869;BME280;67231;59.144;37.934;2023-11-19T09:02:20;100888.38;;;-4.88;71.63
77869;BME280;67231;59.144;37.934;2023-11-19T09:04:46;100884.94;;;-4.90;71.71
77869;BME280;67231;59.144;37.934;2023-11-19T09:07:13;100891.66;;;-4.80;71.37
77869;BME280;67231;59.144;37.934;2023-11-19T09:09:39;100893.22;;;-4.72;71.39
77869;BME280;67231;59.144;37.934;2023-11-19T09:12:06;100888.81;;;-4.69;71.01
77869;BME280;67231;59.144;37.934;2023-11-19T09:14:33;100896.63;;;-4.70;71.46
77869;BME280;67231;59.144;37.934;2023-11-19T09:16:59;100893.16;;;-4.69;71.67
77869;BME280;67231;59.144;37.934;2023-11-19T09:19:26;100887.25;;;-4.76;71.55
77869;BME280;67231;59.144;37.934;2023-11-19T09:21:53;100885.41;;;-4.71;71.73
77869;BME280;67231;59.144;37.934;2023-11-19T09:24:20;100891.41;;;-4.69;71.55
77869;BME280;67231;59.144;37.934;2023-11-19T09:26:46;100898.38;;;-4.72;71.21
77869;BME280;67231;59.144;37.934;2023-11-19T09:29:13;100897.47;;;-4.68;71.21
77869;BME280;67231;59.144;37.934;2023-11-19T09:31:40;100882.66;;;-4.63;71.48
77869;BME280;67231;59.144;37.934;2023-11-19T09:34:07;100885.97;;;-4.57;71.23
77869;BME280;67231;59.144;37.934;2023-11-19T09:36:34;100884.06;;;-4.50;71.03
77869;BME280;67231;59.144;37.934;2023-11-19T09:39:00;100871.72;;;-4.39;71.09
77869;BME280;67231;59.144;37.934;2023-11-19T09:41:29;100882.81;;;-4.33;71.09
77869;BME280;67231;59.144;37.934;2023-11-19T09:43:57;100877.50;;;-4.27;71.31
77869;BME280;67231;59.144;37.934;2023-11-19T09:46:23;100879.22;;;-4.26;71.45
77869;BME280;67231;59.144;37.934;2023-11-19T09:48:53;100870.72;;;-4.31;71.11
77869;BME280;67231;59.144;37.934;2023-11-19T09:51:22;100874.06;;;-4.28;70.56
77869;BME280;67231;59.144;37.934;2023-11-19T09:53:49;100868.06;;;-4.28;70.52
77869;BME280;67231;59.144;37.934;2023-11-19T09:56:16;100865.50;;;-4.30;70.71
77869;BME280;67231;59.144;37.934;2023-11-19T09:58:45;100867.28;;;-4.33;71.03
77869;BME280;67231;59.144;37.934;2023-11-19T10:01:12;100865.59;;;-4.34;70.79
77869;BME280;67231;59.144;37.934;2023-11-19T10:03:41;100865.47;;;-4.28;70.62
77869;BME280;67231;59.144;37.934;2023-11-19T10:06:10;100859.81;;;-4.46;69.99
77869;BME280;67231;59.144;37.934;2023-11-19T10:08:41;100865.09;;;-4.50;70.53
77869;BME280;67231;59.144;37.934;2023-11-19T10:11:10;100852.94;;;-4.47;70.64
77869;BME280;67231;59.144;37.934;2023-11-19T10:13:37;100850.94;;;-4.35;70.62
77869;BME280;67231;59.144;37.934;2023-11-19T10:16:08;100853.47;;;-4.32;70.08
77869;BME280;67231;59.144;37.934;2023-11-19T10:18:38;100846.66;;;-4.36;70.36
77869;BME280;67231;59.144;37.934;2023-11-19T10:21:12;100843.97;;;-4.33;70.27
77869;BME280;67231;59.144;37.934;2023-11-19T10:23:56;100844.69;;;-4.27;70.09
77869;BME280;67231;59.144;37.934;2023-11-19T10:26:28;100849.69;;;-4.21;70.07
77869;BME280;67231;59.144;37.934;2023-11-19T10:28:55;100841.09;;;-4.21;69.89
77869;BME280;67231;59.144;37.934;2023-11-19T10:31:22;100861.03;;;-4.25;70.28
77869;BME280;67231;59.144;37.934;2023-11-19T10:33:52;100859.38;;;-4.27;70.52
77869;BME280;67231;59.144;37.934;2023-11-19T10:36:18;100848.25;;;-4.31;70.47
77869;BME280;67231;59.144;37.934;2023-11-19T10:38:55;100851.44;;;-4.21;70.19
77869;BME280;67231;59.144;37.934;2023-11-19T10:41:31;100856.53;;;-4.16;69.92
77869;BME280;67231;59.144;37.934;2023-11-19T10:43:58;100840.03;;;-4.12;69.57
77869;BME280;67231;59.144;37.934;2023-11-19T10:46:37;100843.56;;;-4.16;69.88
77869;BME280;67231;59.144;37.934;2023-11-19T10:49:05;100843.72;;;-4.23;70.11
77869;BME280;67231;59.144;37.934;2023-11-19T10:51:32;100855.03;;;-4.25;70.15
77869;BME280;67231;59.144;37.934;2023-11-19T10:54:04;100851.66;;;-4.30;69.80
77869;BME280;67231;59.144;37.934;2023-11-19T10:56:34;100849.06;;;-4.30;69.98
77869;BME280;67231;59.144;37.934;2023-11-19T10:59:01;100850.66;;;-4.23;70.01
77869;BME280;67231;59.144;37.934;2023-11-19T11:01:40;100853.16;;;-4.20;69.48
77869;BME280;67231;59.144;37.934;2023-11-19T11:04:14;100851.63;;;-4.29;69.69
77869;BME280;67231;59.144;37.934;2023-11-19T11:06:41;100850.72;;;-4.26;69.64
77869;BME280;67231;59.144;37.934;2023-11-19T11:09:09;100858.50;;;-4.26;69.42
77869;BME280;67231;59.144;37.934;2023-11-19T11:11:43;100853.25;;;-4.23;69.80
77869;BME280;67231;59.144;37.934;2023-11-19T11:14:13;100854.25;;;-4.30;69.62
77869;BME280;67231;59.144;37.934;2023-11-19T11:16:43;100855.38;;;-4.41;69.66
77869;BME280;67231;59.144;37.934;2023-11-19T11:19:11;100867.66;;;-4.49;70.13
77869;BME280;67231;59.144;37.934;2023-11-19T11:21:40;100859.91;;;-4.49;69.86
77869;BME280;67231;59.144;37.934;2023-11-19T11:27:28;100863.16;;;-4.41;69.66
77869;BME280;67231;59.144;37.934;2023-11-19T11:36:11;100860.59;;;-4.42;69.40
77869;BME280;67231;59.144;37.934;2023-11-19T11:38:40;100853.72;;;-4.45;70.03
77869;BME280;67231;59.144;37.934;2023-11-19T11:41:23;100860.84;;;-4.53;70.06
77869;BME280;67231;59.144;37.934;2023-11-19T11:43:52;100845.41;;;-4.58;70.31
77869;BME280;67231;59.144;37.934;2023-11-19T11:49:05;100848.25;;;-4.68;70.10
77869;BME280;67231;59.144;37.934;2023-11-19T11:57:04;100846.47;;;-4.66;70.37
77869;BME280;67231;59.144;37.934;2023-11-19T12:02:09;100847.22;;;-4.61;69.96
77869;BME280;67231;59.144;37.934;2023-11-19T12:04:36;100843.16;;;-4.71;70.22
77869;BME280;67231;59.144;37.934;2023-11-19T12:07:08;100837.97;;;-4.71;70.37
77869;BME280;67231;59.144;37.934;2023-11-19T12:09:42;100841.56;;;-4.79;69.89
77869;BME280;67231;59.144;37.934;2023-11-19T12:12:13;100831.16;;;-4.76;70.16
77869;BME280;67231;59.144;37.934;2023-11-19T12:15:07;100835.47;;;-4.76;70.16
77869;BME280;67231;59.144;37.934;2023-11-19T12:17:38;100841.56;;;-4.79;70.23
77869;BME280;67231;59.144;37.934;2023-11-19T12:20:07;100832.19;;;-4.83;69.68
77869;BME280;67231;59.144;37.934;2023-11-19T12:22:37;100831.38;;;-4.86;69.85
77869;BME280;67231;59.144;37.934;2023-11-19T12:25:05;100839.25;;;-4.89;69.85
77869;BME280;67231;59.144;37.934;2023-11-19T12:27:33;100841.88;;;-4.91;70.13
77869;BME280;67231;59.144;37.934;2023-11-19T12:30:03;100841.94;;;-4.94;70.37
77869;BME280;67231;59.144;37.934;2023-11-19T12:32:44;100844.59;;;-4.99;70.15
77869;BME280;67231;59.144;37.934;2023-11-19T12:35:12;100831.84;;;-5.08;70.27
77869;BME280;67231;59.144;37.934;2023-11-19T12:37:44;100835.38;;;-5.12;70.68
77869;BME280;67231;59.144;37.934;2023-11-19T12:40:24;100839.75;;;-5.14;70.48
77869;BME280;67231;59.144;37.934;2023-11-19T12:42:52;100839.72;;;-5.13;70.31
77869;BME280;67231;59.144;37.934;2023-11-19T12:45:19;100832.97;;;-5.20;70.47
77869;BME280;67231;59.144;37.934;2023-11-19T12:47:47;100842.50;;;-5.22;70.53
77869;BME280;67231;59.144;37.934;2023-11-19T12:50:16;100839.03;;;-5.21;70.62
77869;BME280;67231;59.144;37.934;2023-11-19T12:52:57;100836.47;;;-5.22;70.02
77869;BME280;67231;59.144;37.934;2023-11-19T12:55:26;100834.75;;;-5.23;70.66
77869;BME280;67231;59.144;37.934;2023-11-19T12:57:53;100837.38;;;-5.25;70.50
77869;BME280;67231;59.144;37.934;2023-11-19T13:00:22;100832.34;;;-5.31;70.24
77869;BME280;67231;59.144;37.934;2023-11-19T13:02:51;100830.69;;;-5.35;70.48
77869;BME280;67231;59.144;37.934;2023-11-19T13:05:28;100827.25;;;-5.34;70.32